Time;durP1;ratioP1;P1;durP2;ratioP2;P2;SDS_P1;SDS_P2;PMS_P1;PMS_P2;Temp;Humidity;BMP_temperature;BMP_pressure;BME280_temperature;BME280_humidity;BME280_pressure;Samples;Min_cycle;Max_cycle;Signal;HPM_P1;HPM_P2
2023/11/08 00:00:08;;;;;;;;;5.33;5.33;;;;;;;;5100493;27;45244;-80
2023/11/08 00:02:33;;;;;;;;;6.00;6.00;;;;;;;;5081766;27;46288;-80
2023/11/08 00:04:58;;;;;;;;;7.67;6.67;;;;;;;;5099966;27;45434;-81
2023/11/08 00:07:24;;;;;;;;;5.67;5.67;;;;;;;;5099825;27;45387;-80
2023/11/08 00:09:49;;;;;;;;;4.00;4.00;;;;;;;;5102857;27;45309;-80
2023/11/08 00:12:15;;;;;;;;;6.33;5.33;;;;;;;;5085078;27;47458;-80
2023/11/08 00:14:40;;;;;;;;;5.67;5.67;;;;;;;;5103623;27;46019;-80
2023/11/08 00:17:05;;;;;;;;;6.67;6.00;;;;;;;;5085132;27;45589;-81
2023/11/08 00:19:31;;;;;;;;;8.67;7.00;;;;;;;;5085376;27;45349;-80
2023/11/08 00:21:58;;;;;;;;;8.33;7.67;;;;;;;;5103358;27;45588;-80
2023/11/08 00:24:25;;;;;;;;;6.00;4.00;;;;;;;;5103352;27;45305;-80
2023/11/08 00:26:50;;;;;;;;;5.00;5.00;;;;;;;;5103423;27;45276;-80
2023/11/08 00:29:15;;;;;;;;;7.00;7.00;;;;;;;;5076626;28;45482;-80
2023/11/08 00:31:40;;;;;;;;;5.67;5.67;;;;;;;;5064666;28;46266;-80
2023/11/08 00:34:07;;;;;;;;;6.67;6.67;;;;;;;;5098638;27;46902;-80
2023/11/08 00:36:32;;;;;;;;;8.33;7.00;;;;;;;;5098519;27;45341;-80
2023/11/08 00:38:57;;;;;;;;;8.33;8.00;;;;;;;;5082893;28;45395;-80
2023/11/08 00:41:22;;;;;;;;;9.00;9.00;;;;;;;;5082787;28;45302;-80
2023/11/08 00:43:49;;;;;;;;;10.00;9.00;;;;;;;;5082568;28;46100;-80
2023/11/08 00:46:14;;;;;;;;;11.67;10.33;;;;;;;;5098359;27;45391;-80
2023/11/08 00:48:39;;;;;;;;;9.00;8.67;;;;;;;;5098433;27;45422;-80
2023/11/08 00:51:05;;;;;;;;;10.33;10.00;;;;;;;;5082510;28;45513;-81
2023/11/08 00:53:30;;;;;;;;;6.00;6.00;;;;;;;;5082595;28;45911;-80
2023/11/08 00:55:56;;;;;;;;;10.00;8.67;;;;;;;;5064311;28;45359;-79
2023/11/08 00:58:21;;;;;;;;;8.67;8.67;;;;;;;;5082474;28;45346;-81
2023/11/08 01:00:49;;;;;;;;;8.00;8.00;;;;;;;;5098360;27;46105;-79
2023/11/08 01:03:16;;;;;;;;;8.00;8.00;;;;;;;;5082438;28;45276;-81
2023/11/08 01:05:41;;;;;;;;;9.33;7.33;;;;;;;;5082259;28;45161;-80
2023/11/08 01:08:06;;;;;;;;;10.67;8.00;;;;;;;;5082525;28;45365;-80
2023/11/08 01:10:31;;;;;;;;;10.67;9.00;;;;;;;;5082341;28;45437;-80
2023/11/08 01:12:56;;;;;;;;;8.33;8.00;;;;;;;;5082261;28;46306;-80
2023/11/08 01:15:21;;;;;;;;;7.67;6.00;;;;;;;;5082376;28;45314;-81
2023/11/08 01:17:47;;;;;;;;;8.00;8.00;;;;;;;;5064206;28;45552;-80
2023/11/08 01:20:12;;;;;;;;;10.00;8.33;;;;;;;;5081731;28;45462;-80
2023/11/08 01:22:38;;;;;;;;;5.67;5.67;;;;;;;;5081891;28;45545;-80
2023/11/08 01:25:04;;;;;;;;;10.00;7.00;;;;;;;;5097787;27;45240;-80
2023/11/08 01:27:29;;;;;;;;;7.00;7.00;;;;;;;;5097740;27;45324;-80
2023/11/08 01:29:54;;;;;;;;;9.33;7.00;;;;;;;;5111272;27;47013;-80
2023/11/08 01:32:19;;;;;;;;;9.00;9.00;;;;;;;;5083811;27;48291;-81
2023/11/08 01:34:44;;;;;;;;;9.00;8.67;;;;;;;;5102443;27;45319;-80
2023/11/08 01:37:10;;;;;;;;;11.00;11.00;;;;;;;;5102538;27;45662;-79
2023/11/08 01:39:36;;;;;;;;;12.33;11.00;;;;;;;;5084026;27;45902;-80
2023/11/08 01:42:01;;;;;;;;;10.00;10.00;;;;;;;;5083507;27;48099;-80
2023/11/08 01:44:26;;;;;;;;;11.00;10.67;;;;;;;;5102283;27;45331;-80
2023/11/08 01:46:53;;;;;;;;;11.00;8.33;;;;;;;;5079846;28;45405;-82
2023/11/08 01:49:19;;;;;;;;;9.00;8.67;;;;;;;;5097420;27;47233;-80
2023/11/08 01:51:45;;;;;;;;;10.33;9.00;;;;;;;;5081499;28;46294;-81
2023/11/08 01:54:10;;;;;;;;;10.33;8.67;;;;;;;;5081680;28;45248;-80
2023/11/08 01:56:35;;;;;;;;;9.00;8.00;;;;;;;;5081853;28;45240;-80
2023/11/08 01:59:01;;;;;;;;;8.33;8.00;;;;;;;;5096908;27;46281;-80
2023/11/08 02:01:26;;;;;;;;;8.00;7.00;;;;;;;;5081553;28;46196;-80
2023/11/08 02:03:53;;;;;;;;;7.00;7.00;;;;;;;;5081466;28;45359;-80
2023/11/08 02:06:18;;;;;;;;;7.00;7.00;;;;;;;;5097213;27;45273;-80
2023/11/08 02:08:45;;;;;;;;;9.33;9.00;;;;;;;;5096784;27;46460;-80
2023/11/08 02:11:12;;;;;;;;;10.67;9.00;;;;;;;;5081330;28;45315;-80
2023/11/08 02:13:38;;;;;;;;;8.00;8.00;;;;;;;;5096953;27;45196;-80
2023/11/08 02:16:03;;;;;;;;;7.00;7.00;;;;;;;;5097021;27;45320;-79
2023/11/08 02:18:31;;;;;;;;;7.00;6.33;;;;;;;;5081174;28;45280;-80
2023/11/08 02:20:56;;;;;;;;;9.00;7.67;;;;;;;;5081067;28;46218;-80
2023/11/08 02:23:21;;;;;;;;;8.00;8.00;;;;;;;;5081093;28;45276;-80
2023/11/08 02:25:47;;;;;;;;;10.00;9.33;;;;;;;;5080365;28;45342;-80
2023/11/08 02:28:12;;;;;;;;;8.33;8.00;;;;;;;;5061981;28;47380;-79
2023/11/08 02:30:37;;;;;;;;;11.00;9.00;;;;;;;;5081787;27;48037;-80
2023/11/08 02:33:02;;;;;;;;;7.00;7.00;;;;;;;;5082615;27;45255;-80
2023/11/08 02:35:27;;;;;;;;;8.33;8.00;;;;;;;;5101601;27;45334;-80
2023/11/08 02:37:53;;;;;;;;;10.33;10.00;;;;;;;;5082959;27;46014;-79
2023/11/08 02:40:18;;;;;;;;;8.00;8.00;;;;;;;;5082773;27;46984;-79
2023/11/08 02:42:44;;;;;;;;;11.00;9.33;;;;;;;;5101232;27;45322;-79
2023/11/08 02:45:09;;;;;;;;;9.50;8.50;;;;;;;;5083064;27;45244;-80
2023/11/08 02:47:35;;;;;;;;;11.00;9.00;;;;;;;;5100947;27;45339;-80
2023/11/08 02:50:00;;;;;;;;;7.67;7.33;;;;;;;;5101055;27;45393;-79
2023/11/08 02:52:25;;;;;;;;;11.00;9.33;;;;;;;;5101181;27;45307;-79
2023/11/08 02:54:52;;;;;;;;;9.00;9.00;;;;;;;;5082950;27;45231;-79
2023/11/08 02:57:18;;;;;;;;;9.00;9.00;;;;;;;;5100609;27;45305;-79
2023/11/08 02:59:43;;;;;;;;;10.00;7.33;;;;;;;;5100927;27;45215;-80
2023/11/08 03:02:09;;;;;;;;;8.00;6.00;;;;;;;;5082549;27;45313;-79
2023/11/08 03:04:35;;;;;;;;;10.33;8.00;;;;;;;;5082829;27;45248;-79
2023/11/08 03:07:00;;;;;;;;;8.00;8.00;;;;;;;;5100461;27;45183;-80
2023/11/08 03:09:25;;;;;;;;;9.00;8.00;;;;;;;;5100906;27;46375;-79
2023/11/08 03:11:50;;;;;;;;;10.67;10.33;;;;;;;;5100883;27;45300;-79
2023/11/08 03:14:16;;;;;;;;;7.33;7.33;;;;;;;;5101003;27;45213;-79
2023/11/08 03:16:41;;;;;;;;;10.33;9.67;;;;;;;;5100972;27;45552;-80
2023/11/08 03:19:08;;;;;;;;;7.67;7.67;;;;;;;;5100669;27;45860;-79
2023/11/08 03:21:34;;;;;;;;;11.00;9.00;;;;;;;;5100718;27;45297;-80
2023/11/08 03:24:00;;;;;;;;;10.00;10.00;;;;;;;;5100862;27;45268;-80
2023/11/08 03:26:26;;;;;;;;;9.00;9.00;;;;;;;;5082379;27;47480;-80
2023/11/08 03:28:51;;;;;;;;;14.00;12.00;;;;;;;;5095569;27;45406;-80
2023/11/08 03:31:16;;;;;;;;;10.00;9.00;;;;;;;;5080175;28;45357;-80
2023/11/08 03:33:41;;;;;;;;;6.00;6.00;;;;;;;;5080300;28;45381;-80
2023/11/08 03:36:07;;;;;;;;;9.00;8.33;;;;;;;;5079993;28;45287;-79
2023/11/08 03:38:32;;;;;;;;;9.33;8.33;;;;;;;;5079979;28;45288;-79
2023/11/08 03:40:57;;;;;;;;;8.00;7.00;;;;;;;;5095952;27;45354;-79
2023/11/08 03:43:22;;;;;;;;;7.67;6.67;;;;;;;;5079740;28;45279;-80
2023/11/08 03:45:47;;;;;;;;;11.00;8.00;;;;;;;;5079957;28;45334;-80
2023/11/08 03:48:12;;;;;;;;;10.33;7.33;;;;;;;;5079528;28;45707;-80
2023/11/08 03:50:41;;;;;;;;;10.67;9.00;;;;;;;;5079889;28;45296;-79
2023/11/08 03:53:07;;;;;;;;;9.00;8.67;;;;;;;;5080076;28;45315;-80
2023/11/08 03:55:33;;;;;;;;;3.00;3.00;;;;;;;;5061676;28;46017;-79
2023/11/08 03:57:58;;;;;;;;;10.33;8.33;;;;;;;;5095067;27;47121;-80
2023/11/08 04:00:25;;;;;;;;;8.67;8.67;;;;;;;;5095384;27;45401;-80
2023/11/08 04:02:50;;;;;;;;;6.00;5.67;;;;;;;;5061647;28;45342;-80
2023/11/08 04:05:16;;;;;;;;;7.67;7.00;;;;;;;;5079714;28;45621;-79
2023/11/08 04:07:41;;;;;;;;;6.67;6.67;;;;;;;;5079448;28;46303;-79
2023/11/08 04:10:07;;;;;;;;;8.67;8.00;;;;;;;;5079609;28;45347;-79
2023/11/08 04:12:32;;;;;;;;;9.00;8.00;;;;;;;;5079615;28;45628;-80
2023/11/08 04:14:57;;;;;;;;;8.67;7.67;;;;;;;;5061439;28;46012;-79
2023/11/08 04:17:22;;;;;;;;;9.00;8.00;;;;;;;;5079691;28;45597;-79
2023/11/08 04:19:47;;;;;;;;;7.67;7.00;;;;;;;;5079433;28;45312;-79
2023/11/08 04:22:14;;;;;;;;;9.00;8.00;;;;;;;;5079682;28;45283;-79
2023/11/08 04:24:39;;;;;;;;;11.33;9.67;;;;;;;;5079420;28;45176;-79
2023/11/08 04:27:05;;;;;;;;;7.67;7.33;;;;;;;;5060786;28;47214;-80
2023/11/08 04:29:31;;;;;;;;;11.00;8.33;;;;;;;;5089580;27;45413;-79
2023/11/08 04:31:56;;;;;;;;;8.33;8.33;;;;;;;;5081496;27;45349;-79
2023/11/08 04:34:21;;;;;;;;;8.33;8.33;;;;;;;;5099784;27;45307;-79
2023/11/08 04:36:47;;;;;;;;;7.00;7.00;;;;;;;;5099730;27;45326;-79
2023/11/08 04:39:15;;;;;;;;;8.33;8.33;;;;;;;;5099662;27;45335;-79
2023/11/08 04:41:40;;;;;;;;;8.67;8.00;;;;;;;;5099807;27;45434;-79
2023/11/08 04:44:06;;;;;;;;;10.00;9.00;;;;;;;;5099585;27;45389;-80
2023/11/08 04:46:31;;;;;;;;;8.00;8.00;;;;;;;;5099341;27;45402;-80
2023/11/08 04:48:56;;;;;;;;;7.67;7.67;;;;;;;;5099655;27;45334;-79
2023/11/08 04:51:21;;;;;;;;;9.67;9.00;;;;;;;;5099752;27;45276;-80
2023/11/08 04:53:46;;;;;;;;;8.67;8.67;;;;;;;;5081011;27;46201;-79
2023/11/08 04:56:11;;;;;;;;;12.33;8.00;;;;;;;;5102554;27;46109;-79
2023/11/08 04:58:37;;;;;;;;;9.00;9.00;;;;;;;;5102890;27;45359;-80
2023/11/08 05:01:02;;;;;;;;;6.67;6.67;;;;;;;;5103258;27;45215;-79
2023/11/08 05:03:27;;;;;;;;;9.00;8.00;;;;;;;;5102916;27;45311;-80
2023/11/08 05:05:52;;;;;;;;;9.75;7.75;;;;;;;;5084585;27;48188;-79
2023/11/08 05:08:18;;;;;;;;;8.33;7.67;;;;;;;;5084279;27;45397;-79
2023/11/08 05:10:44;;;;;;;;;7.33;7.00;;;;;;;;5084691;27;45374;-79
2023/11/08 05:13:09;;;;;;;;;9.00;8.33;;;;;;;;5102561;27;45199;-79
2023/11/08 05:15:34;;;;;;;;;8.00;6.33;;;;;;;;5102691;27;45279;-79
2023/11/08 05:18:00;;;;;;;;;9.33;6.33;;;;;;;;5102782;27;45282;-80
2023/11/08 05:20:26;;;;;;;;;10.00;10.00;;;;;;;;5102569;27;45477;-79
2023/11/08 05:22:53;;;;;;;;;10.00;10.00;;;;;;;;5102620;27;45146;-79
2023/11/08 05:25:19;;;;;;;;;10.33;10.00;;;;;;;;5102544;27;46198;-79
2023/11/08 05:27:44;;;;;;;;;7.67;7.67;;;;;;;;5102352;27;45307;-79
2023/11/08 05:30:09;;;;;;;;;8.67;8.67;;;;;;;;5086608;27;45544;-79
2023/11/08 05:32:35;;;;;;;;;10.00;10.00;;;;;;;;5081802;28;45405;-79
2023/11/08 05:35:00;;;;;;;;;12.00;12.00;;;;;;;;5097727;27;46973;-79
2023/11/08 05:37:25;;;;;;;;;11.33;9.00;;;;;;;;5081805;28;45240;-79
2023/11/08 05:39:53;;;;;;;;;11.00;11.00;;;;;;;;5097716;27;45445;-80
2023/11/08 05:42:22;;;;;;;;;12.00;11.00;;;;;;;;5097284;27;46967;-79
2023/11/08 05:44:48;;;;;;;;;13.00;11.00;;;;;;;;5097326;27;46374;-79
2023/11/08 05:47:13;;;;;;;;;11.33;10.67;;;;;;;;5081442;28;45373;-79
2023/11/08 05:49:39;;;;;;;;;11.33;11.33;;;;;;;;5081848;28;45291;-80
2023/11/08 05:52:04;;;;;;;;;15.00;13.33;;;;;;;;5063296;28;47319;-80
2023/11/08 05:54:30;;;;;;;;;14.00;12.33;;;;;;;;5081724;28;45639;-80
2023/11/08 05:56:55;;;;;;;;;15.67;12.00;;;;;;;;5081449;28;45268;-80
2023/11/08 05:59:20;;;;;;;;;9.67;9.67;;;;;;;;5081782;28;45434;-79
2023/11/08 06:01:45;;;;;;;;;12.33;10.00;;;;;;;;5081630;28;45592;-80
2023/11/08 06:04:12;;;;;;;;;11.00;9.33;;;;;;;;5081301;28;45532;-80
2023/11/08 06:06:37;;;;;;;;;9.00;9.00;;;;;;;;5097159;27;46341;-79
2023/11/08 06:09:04;;;;;;;;;11.67;9.67;;;;;;;;5081150;28;45308;-79
2023/11/08 06:11:29;;;;;;;;;8.67;8.67;;;;;;;;5081502;28;45299;-80
2023/11/08 06:13:54;;;;;;;;;8.00;7.67;;;;;;;;5096775;27;47202;-80
2023/11/08 06:16:19;;;;;;;;;7.67;7.00;;;;;;;;5081527;28;45221;-83
2023/11/08 06:18:45;;;;;;;;;8.00;7.00;;;;;;;;5081520;28;45259;-82
2023/11/08 06:21:14;;;;;;;;;9.33;9.33;;;;;;;;5096719;27;46086;-80
2023/11/08 06:23:39;;;;;;;;;7.00;7.00;;;;;;;;5081106;28;45714;-82
2023/11/08 06:26:04;;;;;;;;;9.67;8.33;;;;;;;;5096648;27;45377;-83
2023/11/08 06:28:29;;;;;;;;;11.33;9.33;;;;;;;;5082660;27;45363;-82
2023/11/08 06:30:54;;;;;;;;;10.00;10.00;;;;;;;;5082731;27;46483;-83
2023/11/08 06:33:19;;;;;;;;;8.67;8.00;;;;;;;;5083170;27;47840;-82
2023/11/08 06:35:45;;;;;;;;;9.00;7.33;;;;;;;;5101595;27;45337;-81
2023/11/08 06:38:10;;;;;;;;;8.00;6.67;;;;;;;;5083620;27;45519;-82
2023/11/08 06:40:35;;;;;;;;;6.33;4.00;;;;;;;;5101407;27;45409;-83
2023/11/08 06:43:02;;;;;;;;;9.33;7.33;;;;;;;;5069840;28;48116;-83
2023/11/08 06:45:27;;;;;;;;;8.33;8.33;;;;;;;;5081031;28;45327;-81
2023/11/08 06:47:52;;;;;;;;;9.67;9.33;;;;;;;;5078780;28;45389;-80
2023/11/08 06:50:17;;;;;;;;;11.33;11.33;;;;;;;;5079345;28;46301;-80
2023/11/08 06:52:43;;;;;;;;;11.33;10.33;;;;;;;;5080691;28;45490;-80
2023/11/08 06:55:08;;;;;;;;;13.33;10.67;;;;;;;;5079332;28;45330;-79
2023/11/08 06:57:33;;;;;;;;;15.67;11.33;;;;;;;;5080523;28;45307;-80
2023/11/08 06:59:59;;;;;;;;;9.67;8.33;;;;;;;;5080520;28;45155;-80
2023/11/08 07:02:24;;;;;;;;;10.67;9.33;;;;;;;;5080607;28;46942;-81
2023/11/08 07:04:49;;;;;;;;;15.67;15.33;;;;;;;;5080523;28;45208;-82
2023/11/08 07:07:18;;;;;;;;;17.67;13.00;;;;;;;;5081441;28;45173;-83
2023/11/08 07:09:44;;;;;;;;;12.00;11.00;;;;;;;;5096186;27;45578;-81
2023/11/08 07:12:09;;;;;;;;;11.33;11.00;;;;;;;;5095769;27;47490;-79
2023/11/08 07:14:35;;;;;;;;;14.00;12.67;;;;;;;;5095949;27;45288;-79
2023/11/08 07:17:00;;;;;;;;;13.33;12.33;;;;;;;;5080198;28;45315;-81
2023/11/08 07:19:28;;;;;;;;;9.67;9.67;;;;;;;;5095912;27;46938;-84
2023/11/08 07:21:53;;;;;;;;;10.00;10.00;;;;;;;;5080124;28;45907;-84
2023/11/08 07:24:18;;;;;;;;;11.00;9.33;;;;;;;;5061944;28;45886;-81
2023/11/08 07:26:43;;;;;;;;;9.67;8.00;;;;;;;;5062056;28;45244;-79
2023/11/08 07:29:10;;;;;;;;;9.67;9.00;;;;;;;;5087280;27;45947;-80
2023/11/08 07:31:35;;;;;;;;;9.67;8.33;;;;;;;;5100440;27;46140;-79
2023/11/08 07:34:01;;;;;;;;;10.00;9.00;;;;;;;;5069384;28;45715;-82
2023/11/08 07:36:29;;;;;;;;;11.00;8.33;;;;;;;;5079625;28;45437;-85
2023/11/08 07:38:54;;;;;;;;;9.33;8.00;;;;;;;;5069570;28;47098;-82
2023/11/08 07:41:20;;;;;;;;;7.33;7.33;;;;;;;;5067051;28;47135;-83
2023/11/08 07:43:45;;;;;;;;;11.00;11.00;;;;;;;;5061553;28;45402;-83
2023/11/08 07:46:10;;;;;;;;;8.33;8.33;;;;;;;;5061726;28;45326;-82
2023/11/08 07:48:35;;;;;;;;;8.00;8.00;;;;;;;;5061089;28;46391;-83
2023/11/08 07:51:01;;;;;;;;;9.33;8.00;;;;;;;;5079181;28;45467;-84
2023/11/08 07:53:26;;;;;;;;;8.00;8.00;;;;;;;;5079188;28;45474;-84
2023/11/08 07:55:52;;;;;;;;;8.00;8.00;;;;;;;;5079331;28;45357;-84
2023/11/08 07:58:17;;;;;;;;;6.33;5.00;;;;;;;;5079982;28;45383;-82
2023/11/08 08:00:45;;;;;;;;;8.67;8.67;;;;;;;;5078778;28;46564;-84
2023/11/08 08:03:13;;;;;;;;;8.00;6.67;;;;;;;;5095720;27;46029;-83
2023/11/08 08:05:38;;;;;;;;;6.00;6.00;;;;;;;;5079635;28;45522;-83
2023/11/08 08:08:04;;;;;;;;;7.67;7.67;;;;;;;;5078886;28;46862;-82
2023/11/08 08:13:32;;;;;;;;;8.67;7.33;;;;;;;;5076064;28;45478;-83
2023/11/08 08:15:59;;;;;;;;;6.33;6.00;;;;;;;;5078205;28;45547;-80
2023/11/08 08:18:24;;;;;;;;;10.67;6.33;;;;;;;;5077933;28;45492;-80
2023/11/08 08:20:50;;;;;;;;;8.00;7.00;;;;;;;;5078153;28;46096;-80
2023/11/08 08:23:15;;;;;;;;;6.67;6.67;;;;;;;;5070216;28;45630;-81
2023/11/08 08:25:48;;;;;;;;;6.00;6.00;;;;;;;;5077885;28;45549;-81
2023/11/08 08:28:15;;;;;;;;;7.33;6.00;;;;;;;;5078054;28;45676;-80
2023/11/08 08:30:41;;;;;;;;;7.00;6.33;;;;;;;;5070415;28;48106;-82
2023/11/08 08:33:06;;;;;;;;;9.00;7.00;;;;;;;;5082170;28;45414;-83
2023/11/08 08:35:32;;;;;;;;;6.00;6.00;;;;;;;;5078374;28;45547;-80
2023/11/08 08:37:58;;;;;;;;;10.67;9.00;;;;;;;;5082683;28;45446;-80
2023/11/08 08:40:30;;;;;;;;;5.33;5.33;;;;;;;;5081082;28;48027;-83
2023/11/08 08:42:55;;;;;;;;;5.33;5.33;;;;;;;;5076611;27;45455;-82
2023/11/08 08:45:21;;;;;;;;;3.33;1.00;;;;;;;;5082927;28;45447;-83
2023/11/08 08:47:48;;;;;;;;;7.33;7.33;;;;;;;;5081612;27;45957;-82
2023/11/08 08:50:14;;;;;;;;;8.00;5.33;;;;;;;;5081836;28;46400;-84
2023/11/08 08:52:40;;;;;;;;;6.67;4.67;;;;;;;;5078860;28;45240;-81
2023/11/08 08:55:05;;;;;;;;;8.33;7.67;;;;;;;;5069212;28;45432;-82
2023/11/08 08:57:36;;;;;;;;;5.00;5.00;;;;;;;;5070409;28;47520;-83
2023/11/08 09:00:04;;;;;;;;;5.00;5.00;;;;;;;;5082039;28;46664;-80
2023/11/08 09:02:29;;;;;;;;;7.33;7.00;;;;;;;;5065202;28;45305;-84
2023/11/08 09:04:54;;;;;;;;;5.33;5.33;;;;;;;;5082845;28;45356;-82
2023/11/08 09:07:20;;;;;;;;;4.67;4.67;;;;;;;;5084241;28;45299;-80
2023/11/08 09:09:45;;;;;;;;;5.00;5.00;;;;;;;;5084457;28;47114;-79
2023/11/08 09:12:10;;;;;;;;;6.33;6.00;;;;;;;;5086018;28;45280;-79
2023/11/08 09:14:36;;;;;;;;;5.33;5.33;;;;;;;;5085665;28;45639;-79
2023/11/08 09:17:01;;;;;;;;;4.33;4.33;;;;;;;;5085081;28;45853;-79
2023/11/08 09:19:27;;;;;;;;;6.00;5.67;;;;;;;;5083443;28;45258;-79
2023/11/08 09:21:52;;;;;;;;;6.00;6.00;;;;;;;;5083193;28;45231;-79
2023/11/08 09:24:17;;;;;;;;;8.00;6.67;;;;;;;;5085210;28;45465;-79
2023/11/08 09:26:42;;;;;;;;;5.33;4.67;;;;;;;;5085310;28;45418;-79
2023/11/08 09:29:08;;;;;;;;;7.33;7.33;;;;;;;;5087018;28;45429;-79
2023/11/08 09:31:34;;;;;;;;;5.33;5.33;;;;;;;;5084424;28;46002;-79
2023/11/08 09:34:00;;;;;;;;;7.67;6.67;;;;;;;;5085103;28;45438;-78
2023/11/08 09:36:25;;;;;;;;;4.00;4.00;;;;;;;;5085131;28;46188;-79
2023/11/08 09:38:51;;;;;;;;;4.33;4.33;;;;;;;;5088601;28;46367;-79
2023/11/08 09:41:18;;;;;;;;;6.33;5.00;;;;;;;;5086961;28;45312;-79
2023/11/08 09:43:44;;;;;;;;;5.67;5.00;;;;;;;;5086221;28;45192;-79
2023/11/08 09:46:11;;;;;;;;;4.67;4.67;;;;;;;;5087201;28;45275;-79
2023/11/08 09:48:36;;;;;;;;;5.33;4.33;;;;;;;;5084685;28;46564;-79
2023/11/08 09:51:02;;;;;;;;;4.00;4.00;;;;;;;;5085426;28;45425;-80
2023/11/08 09:53:27;;;;;;;;;6.00;6.00;;;;;;;;5085415;28;45457;-79
2023/11/08 09:55:55;;;;;;;;;3.67;3.67;;;;;;;;5088547;28;45387;-79
2023/11/08 09:58:20;;;;;;;;;3.33;3.33;;;;;;;;5085034;28;48732;-79
2023/11/08 10:00:46;;;;;;;;;5.00;5.00;;;;;;;;5088668;28;45434;-79
2023/11/08 10:03:13;;;;;;;;;5.67;3.00;;;;;;;;5086715;28;45312;-78
2023/11/08 10:05:39;;;;;;;;;3.00;3.00;;;;;;;;5086351;28;45624;-78
2023/11/08 10:08:08;;;;;;;;;4.33;4.33;;;;;;;;5085257;28;45145;-79
2023/11/08 10:10:33;;;;;;;;;3.67;3.67;;;;;;;;5085914;28;45302;-79
2023/11/08 10:13:03;;;;;;;;;5.00;4.00;;;;;;;;5084020;28;45439;-80
2023/11/08 10:15:30;;;;;;;;;5.67;3.67;;;;;;;;5083738;28;45215;-79
2023/11/08 10:17:55;;;;;;;;;4.00;3.00;;;;;;;;5084223;28;47248;-79
2023/11/08 10:20:20;;;;;;;;;2.67;2.67;;;;;;;;5084265;28;45157;-79
2023/11/08 10:22:46;;;;;;;;;4.00;4.00;;;;;;;;5086754;28;45611;-79
2023/11/08 10:25:12;;;;;;;;;5.00;4.00;;;;;;;;5083098;28;46287;-78
2023/11/08 10:28:10;;;;;;;;;2.33;2.33;;;;;;;;5085257;28;47050;-79
2023/11/08 10:30:39;;;;;;;;;3.33;3.00;;;;;;;;5104429;27;45402;-79
2023/11/08 10:33:12;;;;;;;;;2.67;2.67;;;;;;;;5105406;27;45145;-79
2023/11/08 10:35:39;;;;;;;;;4.67;4.67;;;;;;;;5106222;27;45350;-78
2023/11/08 10:38:05;;;;;;;;;3.00;3.00;;;;;;;;5106587;27;46110;-79
2023/11/08 10:40:31;;;;;;;;;2.00;2.00;;;;;;;;5105771;27;45277;-79
2023/11/08 10:42:56;;;;;;;;;3.00;3.00;;;;;;;;5105985;27;45236;-79
2023/11/08 10:45:23;;;;;;;;;3.00;3.00;;;;;;;;5107527;27;45238;-79
2023/11/08 10:47:49;;;;;;;;;2.33;2.33;;;;;;;;5102115;27;46176;-80
2023/11/08 10:50:18;;;;;;;;;2.67;2.33;;;;;;;;5091576;27;45306;-79
2023/11/08 10:52:44;;;;;;;;;3.00;2.67;;;;;;;;5066771;28;45318;-80
2023/11/08 10:55:11;;;;;;;;;4.00;3.00;;;;;;;;5082635;28;45350;-82
2023/11/08 10:57:39;;;;;;;;;3.00;3.00;;;;;;;;5081021;28;46191;-82
2023/11/08 11:00:05;;;;;;;;;2.67;2.67;;;;;;;;5062488;28;45772;-80
2023/11/08 11:02:43;;;;;;;;;2.00;2.00;;;;;;;;5081161;28;45342;-81
2023/11/08 11:05:09;;;;;;;;;2.00;2.00;;;;;;;;5083233;28;45471;-81
2023/11/08 11:07:41;;;;;;;;;3.00;2.00;;;;;;;;5080905;28;47409;-83
2023/11/08 11:10:08;;;;;;;;;3.00;3.00;;;;;;;;5081362;28;45324;-85
2023/11/08 11:12:54;;;;;;;;;1.67;1.67;;;;;;;;5079662;28;45306;-82
2023/11/08 11:15:22;;;;;;;;;2.00;2.00;;;;;;;;5081060;28;46124;-82
2023/11/08 11:17:51;;;;;;;;;2.00;1.67;;;;;;;;5080810;28;47332;-83
2023/11/08 11:20:18;;;;;;;;;4.00;2.00;;;;;;;;5082864;28;45420;-81
2023/11/08 11:22:43;;;;;;;;;1.00;1.00;;;;;;;;5080239;28;45320;-82
2023/11/08 11:25:12;;;;;;;;;2.00;2.00;;;;;;;;5082607;28;45295;-83
2023/11/08 11:27:40;;;;;;;;;1.67;1.67;;;;;;;;5082685;28;45404;-83
2023/11/08 11:30:18;;;;;;;;;1.00;1.00;;;;;;;;5082890;27;45444;-81
2023/11/08 11:32:46;;;;;;;;;2.00;2.00;;;;;;;;5082883;27;45279;-79
2023/11/08 11:35:17;;;;;;;;;2.00;2.00;;;;;;;;5101928;27;45313;-79
2023/11/08 11:38:02;;;;;;;;;1.33;1.33;;;;;;;;5075920;28;47096;-80
2023/11/08 11:40:28;;;;;;;;;1.33;1.33;;;;;;;;5071703;28;46113;-82
2023/11/08 11:42:53;;;;;;;;;1.67;1.67;;;;;;;;5078786;28;45294;-82
2023/11/08 11:45:18;;;;;;;;;2.33;2.00;;;;;;;;5079514;28;46230;-82
2023/11/08 11:47:49;;;;;;;;;1.00;1.00;;;;;;;;5081584;28;47331;-81
2023/11/08 11:50:14;;;;;;;;;0.75;0.75;;;;;;;;5082082;28;45386;-83
2023/11/08 11:53:05;;;;;;;;;1.25;1.25;;;;;;;;5057232;28;45397;-79
2023/11/08 11:55:38;;;;;;;;;1.33;1.33;;;;;;;;5066739;28;46187;-80
2023/11/08 12:01:10;;;;;;;;;1.33;1.33;;;;;;;;5070192;28;45492;-82
2023/11/08 12:03:38;;;;;;;;;2.00;2.00;;;;;;;;5063762;28;45378;-80
2023/11/08 12:06:28;;;;;;;;;2.67;2.00;;;;;;;;5071115;28;45512;-80
2023/11/08 12:09:28;;;;;;;;;2.33;2.00;;;;;;;;5071367;28;47153;-83
2023/11/08 12:11:56;;;;;;;;;1.00;1.00;;;;;;;;5067071;28;45686;-82
2023/11/08 12:14:21;;;;;;;;;2.67;1.00;;;;;;;;5071713;28;45778;-81
2023/11/08 12:16:49;;;;;;;;;2.67;1.00;;;;;;;;5073775;28;46140;-81
2023/11/08 12:19:15;;;;;;;;;0.67;0.67;;;;;;;;5072973;28;47390;-81
2023/11/08 12:21:41;;;;;;;;;1.00;0.33;;;;;;;;5083283;28;45457;-82
2023/11/08 12:24:06;;;;;;;;;1.00;1.00;;;;;;;;5080668;28;45783;-80
2023/11/08 12:26:31;;;;;;;;;4.00;3.00;;;;;;;;5064907;28;46178;-80
2023/11/08 12:28:56;;;;;;;;;1.00;1.00;;;;;;;;5083235;27;45358;-81
2023/11/08 12:31:21;;;;;;;;;2.00;0.00;;;;;;;;5081187;28;45334;-83
2023/11/08 12:33:49;;;;;;;;;1.00;1.00;;;;;;;;5073558;27;45494;-81
2023/11/08 12:36:14;;;;;;;;;3.00;1.33;;;;;;;;5071917;28;46112;-82
2023/11/08 12:38:40;;;;;;;;;1.50;1.00;;;;;;;;5079952;28;46219;-79
2023/11/08 12:41:10;;;;;;;;;3.00;3.00;;;;;;;;5080738;28;45641;-81
2023/11/08 12:46:48;;;;;;;;;1.00;1.00;;;;;;;;5078887;27;45393;-81
2023/11/08 12:49:22;;;;;;;;;2.00;2.00;;;;;;;;5068054;28;47282;-81
2023/11/08 12:51:47;;;;;;;;;1.25;1.25;;;;;;;;5077917;28;45429;-81
2023/11/08 12:54:17;;;;;;;;;1.50;0.25;;;;;;;;5078353;28;45370;-81
2023/11/08 12:56:43;;;;;;;;;1.00;1.00;;;;;;;;5080252;28;45504;-80
2023/11/08 12:59:09;;;;;;;;;0.00;0.00;;;;;;;;5077697;28;46217;-81
2023/11/08 13:01:38;;;;;;;;;0.00;0.00;;;;;;;;5080942;27;45496;-83
2023/11/08 13:04:05;;;;;;;;;1.25;1.25;;;;;;;;5080847;28;45846;-81
2023/11/08 13:06:36;;;;;;;;;1.67;1.67;;;;;;;;5080972;28;45306;-82
2023/11/08 13:09:02;;;;;;;;;1.00;1.00;;;;;;;;5071326;28;47260;-80
2023/11/08 13:11:27;;;;;;;;;0.75;0.00;;;;;;;;5080700;28;45316;-83
2023/11/08 13:13:53;;;;;;;;;1.50;1.50;;;;;;;;5081179;28;45375;-82
2023/11/08 13:16:18;;;;;;;;;1.67;1.67;;;;;;;;5080054;28;45534;-83
2023/11/08 13:18:44;;;;;;;;;1.00;1.00;;;;;;;;5081179;28;45184;-83
2023/11/08 13:21:09;;;;;;;;;1.00;1.00;;;;;;;;5080990;28;45324;-82
2023/11/08 13:23:34;;;;;;;;;1.00;1.00;;;;;;;;5081001;28;45283;-82
2023/11/08 13:26:01;;;;;;;;;0.75;0.75;;;;;;;;5079651;28;45448;-83
2023/11/08 13:28:26;;;;;;;;;0.50;0.50;;;;;;;;5051258;27;46568;-82
2023/11/08 13:30:51;;;;;;;;;1.25;1.25;;;;;;;;5084286;27;45279;-82
2023/11/08 13:33:18;;;;;;;;;0.25;0.25;;;;;;;;5102724;27;45331;-77
2023/11/08 13:35:43;;;;;;;;;2.25;1.25;;;;;;;;5103902;27;45409;-81
2023/11/08 13:38:10;;;;;;;;;0.50;0.50;;;;;;;;5064857;28;47171;-82
2023/11/08 13:40:35;;;;;;;;;3.25;1.00;;;;;;;;5081721;28;45442;-82
2023/11/08 13:43:01;;;;;;;;;0.25;0.25;;;;;;;;5064158;28;45374;-81
2023/11/08 13:45:26;;;;;;;;;2.67;1.33;;;;;;;;5080859;28;45418;-83
2023/11/08 13:47:52;;;;;;;;;0.75;0.25;;;;;;;;5063874;28;46992;-81
2023/11/08 13:50:18;;;;;;;;;0.00;0.00;;;;;;;;5063478;28;45256;-82
2023/11/08 13:52:43;;;;;;;;;2.25;0.00;;;;;;;;5082062;28;45343;-82
2023/11/08 13:55:10;;;;;;;;;2.00;1.00;;;;;;;;5082519;28;45471;-82
2023/11/08 13:57:35;;;;;;;;;1.00;1.00;;;;;;;;5085883;28;45354;-82
2023/11/08 14:00:00;;;;;;;;;3.00;1.50;;;;;;;;5085392;28;45157;-80
2023/11/08 14:02:26;;;;;;;;;3.00;3.00;;;;;;;;5081886;28;45177;-79
2023/11/08 14:04:51;;;;;;;;;1.50;1.50;;;;;;;;5080462;28;45213;-79
2023/11/08 14:07:16;;;;;;;;;2.00;2.00;;;;;;;;5062415;28;47515;-79
2023/11/08 14:09:41;;;;;;;;;2.00;1.33;;;;;;;;5081433;28;45259;-80
2023/11/08 14:12:07;;;;;;;;;1.67;1.00;;;;;;;;5080912;28;45477;-82
2023/11/08 14:14:34;;;;;;;;;1.00;1.00;;;;;;;;5080802;28;45400;-81
2023/11/08 14:16:59;;;;;;;;;1.00;1.00;;;;;;;;5081011;28;45462;-82
2023/11/08 14:19:24;;;;;;;;;1.33;1.33;;;;;;;;5062709;28;45382;-83
2023/11/08 14:21:49;;;;;;;;;1.00;0.00;;;;;;;;5080654;28;45386;-82
2023/11/08 14:24:15;;;;;;;;;1.50;1.00;;;;;;;;5081081;28;45598;-84
2023/11/08 14:26:40;;;;;;;;;1.00;1.00;;;;;;;;5080138;28;45330;-80
2023/11/08 14:29:05;;;;;;;;;1.00;1.00;;;;;;;;5087487;27;45352;-80
2023/11/08 14:31:30;;;;;;;;;2.00;2.00;;;;;;;;5102148;27;45263;-79
2023/11/08 14:33:56;;;;;;;;;1.67;1.67;;;;;;;;5104823;27;45252;-80
2023/11/08 14:36:21;;;;;;;;;3.67;2.00;;;;;;;;5101233;27;45407;-81
2023/11/08 14:38:48;;;;;;;;;2.00;2.00;;;;;;;;5093555;27;45334;-82
2023/11/08 14:41:14;;;;;;;;;2.33;2.00;;;;;;;;5080917;28;45326;-83